Terminal Aerodrome Forecast
Issued by NWS

Home | Current Version | Previous Version | Text Only | Print | Product List | Glossary On
Versions: 1 2 3 4 5 6 7 8 9 10 11 12 13 14 15 16 17 18 19 20 21 22 23 24 25 26 27
000
FTUS45 KVEF 250845 AAA
TAFLAS
TAF AMD
KLAS 250845Z 2509/2606 21012G20KT P6SM FEW150
     FM251300 21010KT P6SM SCT150
     FM251500 VRB05KT P6SM SCT250
     FM251800 25012KT P6SM SCT250
     FM252100 23016G25KT P6SM SKC
     FM260400 22013G21KT P6SM SKC=

USA.gov is the U.S. government's official web portal to all federal, state and local government web resources and services.